Time;durP1;ratioP1;P1;durP2;ratioP2;P2;SDS_P1;SDS_P2;PMS_P1;PMS_P2;Temp;Humidity;BMP_temperature;BMP_pressure;BME280_temperature;BME280_humidity;BME280_pressure;Samples;Min_cycle;Max_cycle;Signal;HPM_P1;HPM_P2
2023/03/06 00:03:29;;;;;;;30.42;18.27;;;;;;;1.23;100.00;100702.50;10434562;28;20132;-75
2023/03/06 00:08:29;;;;;;;26.38;16.25;;;;;;;1.21;100.00;100690.25;10442960;28;20538;-75
2023/03/06 00:13:30;;;;;;;27.70;19.15;;;;;;;1.16;100.00;100695.94;10441834;28;20164;-74
2023/03/06 00:18:32;;;;;;;27.20;16.40;;;;;;;1.20;100.00;100685.88;10441080;28;20139;-75
2023/03/06 00:23:32;;;;;;;25.47;20.20;;;;;;;1.27;100.00;100686.53;10474390;28;20060;-74
2023/03/06 00:28:33;;;;;;;26.63;17.90;;;;;;;1.22;100.00;100679.16;10479872;28;20399;-75
2023/03/06 00:33:34;;;;;;;25.13;18.77;;;;;;;1.19;100.00;100666.03;10438077;28;20091;-74
2023/03/06 00:38:36;;;;;;;31.40;21.00;;;;;;;1.17;100.00;100671.94;10482158;28;20044;-74
2023/03/06 00:43:36;;;;;;;29.45;21.13;;;;;;;1.12;100.00;100662.94;10454692;28;20120;-75
2023/03/06 00:48:37;;;;;;;32.83;23.10;;;;;;;1.08;100.00;100655.72;10461472;28;20143;-74
2023/03/06 00:53:37;;;;;;;35.88;23.80;;;;;;;1.10;100.00;100649.03;10467711;28;20036;-74
2023/03/06 00:58:38;;;;;;;33.05;23.95;;;;;;;0.99;100.00;100644.66;10485122;28;20485;-74
2023/03/06 01:03:38;;;;;;;32.70;21.70;;;;;;;0.91;100.00;100649.19;10444583;28;20041;-75
2023/03/06 01:08:38;;;;;;;30.08;22.42;;;;;;;0.85;100.00;100638.38;10448397;28;20135;-75
2023/03/06 01:13:39;;;;;;;28.13;21.80;;;;;;;0.83;100.00;100630.50;10447967;28;20123;-75
2023/03/06 01:18:40;;;;;;;38.60;22.10;;;;;;;0.79;100.00;100625.00;10464946;28;20458;-75
2023/03/06 01:23:40;;;;;;;36.47;22.77;;;;;;;0.74;100.00;100616.88;10452058;28;20107;-75
2023/03/06 01:28:41;;;;;;;30.13;23.05;;;;;;;0.73;100.00;100618.56;10455600;28;20029;-75
2023/03/06 01:33:41;;;;;;;35.90;21.20;;;;;;;0.64;100.00;100615.22;10461624;28;20076;-75
2023/03/06 01:38:42;;;;;;;37.25;24.65;;;;;;;0.55;100.00;100612.75;10459087;28;20396;-74
2023/03/06 01:43:44;;;;;;;48.42;27.27;;;;;;;0.63;100.00;100599.63;10449740;28;20036;-74
2023/03/06 01:48:44;;;;;;;41.88;27.95;;;;;;;0.75;100.00;100590.34;10443362;28;20032;-74
2023/03/06 01:53:45;;;;;;;41.30;31.15;;;;;;;0.78;100.00;100602.59;10436610;28;20119;-75
2023/03/06 01:58:45;;;;;;;51.80;33.17;;;;;;;0.85;100.00;100592.88;10469698;28;20040;-75
2023/03/06 02:03:46;;;;;;;52.67;33.40;;;;;;;0.89;100.00;100594.06;10443646;28;20469;-75
2023/03/06 02:08:48;;;;;;;54.25;32.65;;;;;;;0.91;100.00;100589.94;10470355;28;20045;-74
2023/03/06 02:13:49;;;;;;;37.50;26.88;;;;;;;0.91;100.00;100582.19;10434436;28;20132;-74
2023/03/06 02:18:49;;;;;;;49.70;30.83;;;;;;;0.92;100.00;100586.59;10445836;28;20072;-74
2023/03/06 02:24:14;;;;;;;41.85;27.92;;;;;;;0.92;100.00;100577.94;10466440;28;20123;-74
2023/03/06 02:29:20;;;;;;;43.17;30.08;;;;;;;0.90;100.00;100575.25;10459783;28;20429;-74
2023/03/06 02:34:20;;;;;;;48.88;31.48;;;;;;;0.88;100.00;100574.22;10425101;28;20065;-75
2023/03/06 02:39:22;;;;;;;47.78;27.63;;;;;;;0.91;100.00;100576.13;10456197;28;20135;-74
2023/03/06 02:44:23;;;;;;;51.65;31.20;;;;;;;0.91;100.00;100569.31;10426352;28;20480;-75
2023/03/06 02:49:23;;;;;;;46.20;31.05;;;;;;;0.93;100.00;100559.13;10443671;28;20068;-74
2023/03/06 02:54:24;;;;;;;48.63;33.20;;;;;;;0.96;100.00;100551.63;10441807;28;20501;-74
2023/03/06 02:59:24;;;;;;;50.45;33.65;;;;;;;0.96;100.00;100544.81;10443223;28;20029;-75
2023/03/06 03:04:25;;;;;;;58.17;34.58;;;;;;;1.00;100.00;100539.13;10443755;28;20044;-74
2023/03/06 03:09:25;;;;;;;62.15;40.45;;;;;;;0.97;100.00;100540.56;10457532;28;20033;-74
2023/03/06 03:14:26;;;;;;;58.20;38.08;;;;;;;0.96;100.00;100533.59;10465580;28;20175;-74
2023/03/06 03:19:26;;;;;;;64.72;39.67;;;;;;;0.97;100.00;100530.25;10443998;28;20132;-74
2023/03/06 03:24:27;;;;;;;66.95;41.28;;;;;;;0.98;100.00;100517.50;10449641;28;20041;-75
2023/03/06 03:29:27;;;;;;;59.25;38.17;;;;;;;0.94;100.00;100511.94;10443938;28;20064;-74
2023/03/06 03:34:28;;;;;;;55.05;32.90;;;;;;;0.86;100.00;100506.19;10424024;28;20037;-75
2023/03/06 03:39:28;;;;;;;58.88;34.60;;;;;;;0.63;100.00;100504.31;10458739;28;20056;-75
2023/03/06 03:44:29;;;;;;;56.45;39.22;;;;;;;0.38;100.00;100510.94;10474159;28;20127;-75
2023/03/06 03:49:29;;;;;;;62.13;40.05;;;;;;;0.34;100.00;100501.16;10428977;28;20044;-75
2023/03/06 03:54:30;;;;;;;66.80;39.65;;;;;;;0.47;100.00;100495.34;10454931;28;20194;-75
2023/03/06 03:59:30;;;;;;;55.88;39.97;;;;;;;0.60;100.00;100493.75;10442208;28;20116;-74
2023/03/06 04:04:31;;;;;;;49.90;30.80;;;;;;;0.72;100.00;100487.03;10439077;28;20120;-75
2023/03/06 04:09:31;;;;;;;47.58;30.90;;;;;;;0.75;100.00;100487.28;10458880;28;20453;-74
2023/03/06 04:14:32;;;;;;;49.75;31.40;;;;;;;0.84;100.00;100482.88;10473092;28;20041;-74
2023/03/06 04:19:32;;;;;;;50.47;28.33;;;;;;;0.84;100.00;100469.09;10441694;28;20143;-74
2023/03/06 04:24:33;;;;;;;48.22;30.95;;;;;;;0.85;100.00;100465.75;10422564;28;20068;-74
2023/03/06 04:29:33;;;;;;;45.05;29.75;;;;;;;0.84;100.00;100461.38;10450591;28;20047;-74
2023/03/06 04:34:34;;;;;;;49.83;28.60;;;;;;;0.86;100.00;100455.53;10437871;28;20128;-75
2023/03/06 04:39:34;;;;;;;50.20;30.15;;;;;;;0.88;100.00;100453.13;10461844;28;20497;-74
2023/03/06 04:44:35;;;;;;;45.63;30.55;;;;;;;0.88;100.00;100458.25;10478515;28;20052;-75
2023/03/06 04:49:35;;;;;;;43.33;27.05;;;;;;;0.84;100.00;100454.53;10458606;28;20453;-76
2023/03/06 04:54:36;;;;;;;50.83;29.05;;;;;;;0.79;100.00;100452.38;10471686;28;20056;-75
2023/03/06 04:59:36;;;;;;;41.80;27.20;;;;;;;0.69;100.00;100451.63;10457050;28;20140;-74
2023/03/06 05:04:37;;;;;;;43.05;28.15;;;;;;;0.67;100.00;100448.03;10424729;28;20183;-74
2023/03/06 05:09:37;;;;;;;43.10;26.60;;;;;;;0.60;100.00;100449.97;10454093;28;20041;-74
2023/03/06 05:14:38;;;;;;;35.95;27.50;;;;;;;0.40;100.00;100447.59;10463946;28;20409;-74
2023/03/06 05:19:38;;;;;;;46.47;27.45;;;;;;;0.26;100.00;100448.16;10457686;28;20128;-75
2023/03/06 05:24:39;;;;;;;44.05;30.02;;;;;;;0.27;100.00;100453.41;10454298;28;20044;-74
2023/03/06 05:29:39;;;;;;;50.15;33.08;;;;;;;0.17;100.00;100450.84;10470259;28;20140;-74
2023/03/06 05:34:40;;;;;;;51.08;28.42;;;;;;;0.14;100.00;100448.94;10476415;28;21589;-74
2023/03/06 05:39:41;;;;;;;47.67;31.70;;;;;;;0.12;100.00;100442.78;10455619;28;20472;-74
2023/03/06 05:44:41;;;;;;;49.42;34.15;;;;;;;0.19;100.00;100435.56;10461501;28;20420;-73
2023/03/06 05:49:42;;;;;;;62.47;40.22;;;;;;;0.10;100.00;100433.09;10458822;28;20037;-74
2023/03/06 05:54:42;;;;;;;71.07;39.08;;;;;;;0.01;100.00;100424.63;10422988;28;20122;-74
2023/03/06 05:59:43;;;;;;;61.90;37.40;;;;;;;-0.07;100.00;100421.44;10424273;28;20083;-73
2023/03/06 06:04:47;;;;;;;59.93;36.13;;;;;;;-0.25;100.00;100421.69;10444006;28;20424;-76
2023/03/06 06:09:47;;;;;;;62.03;40.97;;;;;;;-0.43;100.00;100431.31;10427881;28;20077;-74
2023/03/06 06:14:48;;;;;;;71.63;40.25;;;;;;;-0.61;100.00;100433.25;10416437;28;20051;-75
2023/03/06 06:19:48;;;;;;;69.88;44.15;;;;;;;-0.66;100.00;100439.66;10431860;28;20538;-75
2023/03/06 06:24:49;;;;;;;76.50;42.08;;;;;;;-0.66;100.00;100437.09;10440295;28;20034;-74
2023/03/06 06:29:51;;;;;;;72.03;45.53;;;;;;;-0.57;100.00;100443.03;10431041;28;20049;-74
2023/03/06 06:34:51;;;;;;;70.97;44.80;;;;;;;-0.45;100.00;100431.22;10390039;28;20072;-74
2023/03/06 06:39:52;;;;;;;74.65;52.72;;;;;;;-0.36;100.00;100443.94;10420177;28;20036;-74
2023/03/06 06:44:52;;;;;;;77.15;47.58;;;;;;;-0.21;100.00;100443.41;10384190;28;20061;-75
2023/03/06 06:49:54;;;;;;;81.03;45.47;;;;;;;-0.07;100.00;100434.28;10406314;28;20127;-74
2023/03/06 06:54:55;;;;;;;80.85;46.20;;;;;;;0.01;100.00;100434.91;10478313;28;20065;-74
2023/03/06 06:59:56;;;;;;;65.25;43.38;;;;;;;0.11;100.00;100438.41;10452629;28;20384;-74
2023/03/06 07:04:57;;;;;;;72.55;42.97;;;;;;;0.13;100.00;100431.69;10448059;28;20053;-73
2023/03/06 07:09:57;;;;;;;71.30;44.80;;;;;;;0.28;100.00;100426.00;10470503;28;20040;-73
2023/03/06 07:14:58;;;;;;;73.75;45.45;;;;;;;0.35;100.00;100432.53;10439149;28;20120;-74
2023/03/06 07:19:58;;;;;;;70.78;44.83;;;;;;;0.41;100.00;100438.19;10423914;28;20238;-73
2023/03/06 07:24:59;;;;;;;64.38;39.67;;;;;;;0.48;100.00;100431.88;10441366;28;20037;-74
2023/03/06 07:30:00;;;;;;;67.72;41.22;;;;;;;0.66;100.00;100432.44;10430760;28;20035;-74
2023/03/06 07:35:00;;;;;;;61.40;40.40;;;;;;;0.87;100.00;100421.28;10426753;28;20045;-74
2023/03/06 07:40:00;;;;;;;59.88;38.45;;;;;;;0.97;100.00;100420.34;10436491;28;20123;-74
2023/03/06 07:45:02;;;;;;;68.95;44.83;;;;;;;1.10;100.00;100416.16;10425970;28;20119;-74
2023/03/06 07:50:05;;;;;;;60.20;38.22;;;;;;;1.14;100.00;100410.44;10432167;28;20097;-73
2023/03/06 07:55:06;;;;;;;64.00;40.30;;;;;;;1.22;100.00;100423.94;10428367;28;20912;-74
2023/03/06 08:00:09;;;;;;;69.87;40.03;;;;;;;1.25;100.00;100431.91;10422124;28;20120;-74
2023/03/06 08:05:12;;;;;;;55.60;35.05;;;;;;;1.50;100.00;100421.81;10452887;28;20066;-74
2023/03/06 08:10:13;;;;;;;63.40;38.60;;;;;;;1.86;100.00;100419.31;10472674;28;20447;-73
2023/03/06 08:15:14;;;;;;;51.33;34.35;;;;;;;1.93;100.00;100415.53;10432882;28;20045;-73
2023/03/06 08:20:15;;;;;;;57.88;36.95;;;;;;;1.83;100.00;100421.66;10429527;28;20488;-74
2023/03/06 08:25:16;;;;;;;55.55;34.53;;;;;;;1.63;100.00;100420.19;10464303;28;20122;-73
2023/03/06 08:30:18;;;;;;;53.05;34.65;;;;;;;1.62;100.00;100411.53;10439429;28;20243;-74
2023/03/06 08:35:18;;;;;;;48.33;32.67;;;;;;;1.60;100.00;100425.97;10440210;28;20492;-74
2023/03/06 08:40:19;;;;;;;64.45;36.40;;;;;;;1.55;100.00;100430.81;10442154;28;20061;-73
2023/03/06 08:45:20;;;;;;;53.95;32.38;;;;;;;1.48;100.00;100425.03;10439342;28;20119;-73
2023/03/06 08:50:21;;;;;;;60.58;33.78;;;;;;;1.44;100.00;100424.81;10448030;28;20101;-74
2023/03/06 08:55:21;;;;;;;54.35;36.20;;;;;;;1.52;100.00;100421.91;10437522;28;20441;-73
2023/03/06 09:00:22;;;;;;;51.53;35.55;;;;;;;1.56;100.00;100426.53;10455927;28;20126;-73
2023/03/06 09:05:22;;;;;;;53.17;36.38;;;;;;;1.63;100.00;100433.06;10453070;28;20377;-74
2023/03/06 09:10:23;;;;;;;52.65;34.55;;;;;;;1.74;100.00;100438.25;10473517;28;20040;-76
2023/03/06 09:15:24;;;;;;;59.25;34.67;;;;;;;1.69;100.00;100431.84;10461532;28;20048;-73
2023/03/06 09:20:24;;;;;;;61.42;39.58;;;;;;;1.80;100.00;100435.25;10444203;28;20044;-73
2023/03/06 09:25:25;;;;;;;51.20;35.20;;;;;;;1.93;100.00;100429.31;10480380;28;20120;-73
2023/03/06 09:30:26;;;;;;;59.25;32.85;;;;;;;2.03;100.00;100434.38;10447902;28;20183;-73
2023/03/06 09:35:27;;;;;;;48.20;29.90;;;;;;;2.19;100.00;100433.88;10448699;28;20040;-73
2023/03/06 09:41:01;;;;;;;46.20;30.15;;;;;;;2.35;100.00;100435.88;10418614;28;20087;-73
2023/03/06 09:46:08;;;;;;;51.22;31.73;;;;;;;2.61;100.00;100421.38;10444657;28;20124;-73
2023/03/06 09:51:14;;;;;;;45.58;28.55;;;;;;;2.90;100.00;100425.16;10401326;28;20092;-73
2023/03/06 09:56:16;;;;;;;45.30;29.98;;;;;;;3.16;100.00;100425.22;10414802;28;20048;-73
2023/03/06 10:01:24;;;;;;;37.60;26.77;;;;;;;3.00;100.00;100424.16;10415886;28;20041;-74
2023/03/06 10:06:47;;;;;;;44.60;28.40;;;;;;;3.39;100.00;100426.81;10432624;28;20110;-73
2023/03/06 10:11:52;;;;;;;50.60;27.48;;;;;;;3.57;100.00;100423.69;10433285;28;20057;-74
2023/03/06 10:16:52;;;;;;;43.67;25.50;;;;;;;3.63;100.00;100421.53;10416332;28;20048;-74
2023/03/06 10:21:59;;;;;;;38.53;24.83;;;;;;;3.94;100.00;100421.03;10424152;28;20518;-73
2023/03/06 10:27:08;;;;;;;43.47;25.00;;;;;;;4.34;100.00;100423.66;10412752;28;20037;-74
2023/03/06 10:32:25;;;;;;;31.33;20.23;;;;;;;4.10;100.00;100421.25;10453287;28;20036;-73
2023/03/06 10:37:28;;;;;;;35.40;22.70;;;;;;;3.87;100.00;100426.59;10456881;28;20040;-74
2023/03/06 10:42:28;;;;;;;45.35;27.08;;;;;;;3.52;100.00;100426.88;10471226;28;20047;-75
2023/03/06 10:47:33;;;;;;;42.53;27.15;;;;;;;3.27;100.00;100432.03;10480656;28;20064;-73
2023/03/06 10:52:34;;;;;;;49.22;30.45;;;;;;;3.13;100.00;100431.06;10432169;28;20065;-73
2023/03/06 10:57:35;;;;;;;47.22;27.45;;;;;;;3.02;100.00;100434.56;10449789;28;20059;-73
2023/03/06 11:02:37;;;;;;;40.15;25.85;;;;;;;3.16;100.00;100438.16;10394140;28;20045;-73
2023/03/06 11:07:39;;;;;;;;;;;;;;;3.42;100.00;100436.50;10385423;28;20045;-73
2023/03/06 11:12:40;;;;;;;43.25;23.92;;;;;;;3.64;100.00;100431.09;10431561;28;19972;-73
2023/03/06 11:17:51;;;;;;;34.78;21.50;;;;;;;3.51;100.00;100435.44;10409129;28;20049;-73
2023/03/06 11:23:09;;;;;;;36.42;20.98;;;;;;;3.59;100.00;100420.44;10442970;28;20090;-73
2023/03/06 11:28:43;;;;;;;32.50;22.02;;;;;;;3.78;100.00;100421.69;10429143;28;20568;-73
2023/03/06 11:33:56;;;;;;;39.00;23.10;;;;;;;3.68;100.00;100414.97;10421810;28;20576;-74
2023/03/06 11:38:56;;;;;;;37.83;22.67;;;;;;;3.43;100.00;100412.41;10442984;28;20033;-74
2023/03/06 11:44:06;;;;;;;36.17;23.90;;;;;;;3.22;100.00;100416.19;10423363;28;20047;-74
2023/03/06 11:49:15;;;;;;;45.08;27.73;;;;;;;3.15;100.00;100416.56;10419912;28;20460;-73
2023/03/06 11:54:16;;;;;;;34.95;23.33;;;;;;;3.16;100.00;100408.00;10446000;28;20044;-73
2023/03/06 11:59:28;;;;;;;34.13;24.65;;;;;;;3.32;100.00;100396.13;10433549;28;20854;-73
2023/03/06 12:04:47;;;;;;;30.88;19.08;;;;;;;3.76;100.00;100397.41;10451008;28;20428;-73
2023/03/06 12:10:13;;;;;;;28.23;18.80;;;;;;;3.85;100.00;100386.75;10409425;28;20041;-74
2023/03/06 12:15:41;;;;;;;31.90;22.38;;;;;;;3.95;100.00;100381.38;10472064;28;20059;-73
2023/03/06 12:21:18;;;;;;;32.08;21.17;;;;;;;4.08;100.00;100371.03;10459927;28;20090;-73
2023/03/06 12:26:57;;;;;;;33.90;22.92;;;;;;;4.41;100.00;100370.56;10456602;28;20498;-73
2023/03/06 12:32:35;;;;;;;29.70;19.20;;;;;;;4.53;100.00;100360.97;10435156;28;20393;-74
2023/03/06 12:37:42;;;;;;;27.50;17.88;;;;;;;4.53;100.00;100358.38;10462328;28;20079;-72
2023/03/06 12:43:09;;;;;;;34.15;21.42;;;;;;;4.38;100.00;100352.22;10387360;28;20092;-72
2023/03/06 12:48:21;;;;;;;39.50;26.05;;;;;;;4.66;100.00;100346.19;10474031;28;20484;-72
2023/03/06 12:53:28;;;;;;;;;;;;;;;5.10;100.00;100339.38;10452322;28;20048;-73
2023/03/06 12:58:29;;;;;;;40.53;30.02;;;;;;;5.48;100.00;100335.59;10401525;28;20317;-72
2023/03/06 13:03:57;;;;;;;37.50;23.73;;;;;;;5.59;100.00;100331.94;10407424;28;20136;-73
2023/03/06 13:09:03;;;;;;;36.17;23.42;;;;;;;5.52;100.00;100334.09;10447953;28;20083;-73
2023/03/06 13:14:25;;;;;;;40.83;25.75;;;;;;;5.05;100.00;100333.00;10446851;28;20075;-73
2023/03/06 13:19:26;;;;;;;41.25;23.77;;;;;;;5.04;100.00;100331.22;10448101;28;20114;-73
2023/03/06 13:24:34;;;;;;;36.47;24.55;;;;;;;6.45;100.00;100309.13;10445864;28;20167;-73
2023/03/06 13:29:34;;;;;;;34.97;22.58;;;;;;;6.88;100.00;100313.19;10405144;28;20041;-73
2023/03/06 13:34:36;;;;;;;32.80;20.58;;;;;;;8.04;100.00;100291.22;10405683;28;20042;-73
2023/03/06 13:39:54;;;;;;;32.05;19.02;;;;;;;8.72;100.00;100286.59;10403175;28;20171;-72
2023/03/06 13:45:12;;;;;;;32.55;21.27;;;;;;;8.88;100.00;100279.47;10446354;28;20037;-72
2023/03/06 13:50:35;;;;;;;28.48;18.40;;;;;;;9.03;100.00;100269.72;10404033;28;20061;-73
2023/03/06 13:55:57;;;;;;;29.55;19.05;;;;;;;9.24;100.00;100279.31;10447598;28;20072;-73
2023/03/06 14:01:25;;;;;;;33.92;18.13;;;;;;;8.47;100.00;100269.78;10405254;28;20034;-73
2023/03/06 14:06:36;;;;;;;29.30;18.08;;;;;;;7.89;100.00;100258.38;10408795;28;20090;-72
2023/03/06 14:11:36;;;;;;;30.83;17.98;;;;;;;7.72;100.00;100267.97;10432343;28;20044;-71
2023/03/06 14:16:38;;;;;;;28.15;16.55;;;;;;;7.68;100.00;100259.94;10432226;28;20459;-72
2023/03/06 14:21:45;;;;;;;26.98;16.55;;;;;;;8.50;100.00;100251.72;10442918;28;20494;-72
2023/03/06 14:26:47;;;;;;;23.33;15.57;;;;;;;7.72;100.00;100254.06;10434229;28;20036;-72
2023/03/06 14:31:49;;;;;;;27.40;16.60;;;;;;;6.29;100.00;100251.91;10423579;28;20040;-72
2023/03/06 14:36:51;;;;;;;24.45;15.63;;;;;;;6.19;100.00;100254.78;10468898;28;20459;-72
2023/03/06 14:42:18;;;;;;;28.85;18.38;;;;;;;5.69;100.00;100254.59;10443908;28;20041;-72
2023/03/06 14:47:24;;;;;;;26.48;16.38;;;;;;;5.46;100.00;100256.75;10403295;28;20120;-72
2023/03/06 14:52:24;;;;;;;26.15;17.48;;;;;;;5.36;100.00;100249.22;10483752;28;20041;-72
2023/03/06 14:57:25;;;;;;;19.48;11.95;;;;;;;4.90;100.00;100248.28;10478849;28;20128;-72
2023/03/06 15:02:27;;;;;;;16.42;10.60;;;;;;;4.76;100.00;100241.38;10444273;28;20083;-72
2023/03/06 15:07:29;;;;;;;22.95;12.32;;;;;;;4.87;100.00;100237.72;10409142;28;20040;-72
2023/03/06 15:12:32;;;;;;;25.95;13.70;;;;;;;4.94;100.00;100226.91;10400373;28;20482;-72
2023/03/06 15:17:43;;;;;;;28.60;15.88;;;;;;;4.78;100.00;100219.03;10433924;28;20040;-72
2023/03/06 15:22:46;;;;;;;27.65;18.42;;;;;;;4.79;100.00;100215.63;10467737;28;20510;-72
2023/03/06 15:27:51;;;;;;;31.33;19.05;;;;;;;4.68;100.00;100202.91;10453796;28;20049;-71
2023/03/06 15:33:18;;;;;;;31.13;18.83;;;;;;;4.51;100.00;100213.94;10450284;28;20541;-72
2023/03/06 15:38:22;;;;;;;32.88;19.35;;;;;;;4.63;100.00;100208.63;10447339;28;20037;-72
2023/03/06 15:43:23;;;;;;;35.60;19.45;;;;;;;4.96;100.00;100186.41;10439841;28;20052;-73
2023/03/06 15:48:23;;;;;;;35.42;20.50;;;;;;;5.17;100.00;100185.00;10451267;28;20044;-73
2023/03/06 15:53:24;;;;;;;30.75;17.73;;;;;;;4.96;100.00;100181.22;10460094;28;20837;-73
2023/03/06 15:58:25;;;;;;;27.70;18.25;;;;;;;4.83;100.00;100170.94;10465798;28;20132;-73
2023/03/06 16:03:26;;;;;;;31.00;20.50;;;;;;;4.80;100.00;100170.75;10412846;28;20388;-73
2023/03/06 16:08:27;;;;;;;28.08;15.93;;;;;;;4.59;100.00;100160.88;10418941;28;20116;-74
2023/03/06 16:13:28;;;;;;;29.37;19.13;;;;;;;4.40;100.00;100157.16;10458186;28;20127;-73
2023/03/06 16:18:30;;;;;;;33.10;20.60;;;;;;;4.23;100.00;100157.84;10437889;28;20392;-74
2023/03/06 16:23:30;;;;;;;;;;;;;;;4.15;100.00;100154.78;10447838;28;20068;-74
2023/03/06 16:28:31;;;;;;;35.47;21.05;;;;;;;4.13;100.00;100145.13;10447458;28;20347;-74
2023/03/06 16:33:31;;;;;;;36.20;21.40;;;;;;;4.12;100.00;100146.81;10445819;28;20270;-73
2023/03/06 16:38:35;;;;;;;34.75;21.75;;;;;;;4.10;100.00;100141.53;10444030;28;20055;-73
2023/03/06 16:43:35;;;;;;;34.55;21.45;;;;;;;3.99;100.00;100139.09;10440169;28;20045;-73
2023/03/06 16:48:36;;;;;;;36.35;22.10;;;;;;;3.87;100.00;100132.34;10433793;28;20124;-74
2023/03/06 16:53:36;;;;;;;39.63;22.73;;;;;;;3.84;100.00;100120.88;10472324;28;20441;-73
2023/03/06 16:58:37;;;;;;;40.33;19.90;;;;;;;3.71;100.00;100112.34;10445196;28;20120;-73
2023/03/06 17:03:38;;;;;;;45.33;23.80;;;;;;;3.53;100.00;100119.88;10431260;28;20060;-74
2023/03/06 17:08:38;;;;;;;33.50;21.17;;;;;;;3.51;100.00;100126.63;10441490;28;20067;-73
2023/03/06 17:13:39;;;;;;;37.75;23.00;;;;;;;3.47;100.00;100117.75;10447860;28;20033;-74
2023/03/06 17:18:39;;;;;;;35.63;20.40;;;;;;;3.42;100.00;100119.16;10463709;28;20400;-74
2023/03/06 17:23:40;;;;;;;40.45;21.23;;;;;;;3.38;100.00;100112.91;10458851;28;20365;-74
2023/03/06 17:28:40;;;;;;;36.75;23.55;;;;;;;3.35;100.00;100111.81;10487335;28;20035;-73
2023/03/06 17:33:41;;;;;;;33.75;21.40;;;;;;;3.30;100.00;100118.38;10487803;28;20387;-73
2023/03/06 17:38:42;;;;;;;42.65;23.85;;;;;;;3.32;100.00;100119.38;10459442;28;20048;-73
2023/03/06 17:43:42;;;;;;;40.80;23.13;;;;;;;3.30;100.00;100108.03;10459101;28;20044;-74
2023/03/06 17:48:43;;;;;;;36.60;21.50;;;;;;;3.32;100.00;100097.00;10421152;28;20116;-73
2023/03/06 17:53:43;;;;;;;34.85;22.23;;;;;;;3.26;100.00;100100.84;10428377;28;20041;-75
2023/03/06 17:58:44;;;;;;;32.53;21.33;;;;;;;3.29;100.00;100099.38;10402568;28;20132;-74
2023/03/06 18:03:46;;;;;;;31.98;18.75;;;;;;;3.42;100.00;100088.13;10426929;28;20041;-74
2023/03/06 18:08:47;;;;;;;33.78;18.90;;;;;;;3.47;100.00;100096.19;10417145;28;20124;-73
2023/03/06 18:13:48;;;;;;;33.60;21.30;;;;;;;3.47;100.00;100098.78;10436790;28;20044;-73
2023/03/06 18:18:52;;;;;;;32.08;21.15;;;;;;;3.41;100.00;100088.91;10440873;28;20260;-74
2023/03/06 18:23:53;;;;;;;35.05;21.00;;;;;;;3.42;100.00;100082.06;10407298;28;20472;-73
2023/03/06 18:29:00;;;;;;;31.70;19.15;;;;;;;3.38;100.00;100075.78;10388567;28;20052;-72
2023/03/06 18:34:08;;;;;;;31.05;20.50;;;;;;;3.36;100.00;100067.94;10425161;28;20060;-74
2023/03/06 18:39:11;;;;;;;28.33;18.42;;;;;;;3.47;100.00;100057.38;10459998;28;20041;-74
2023/03/06 18:44:13;;;;;;;33.60;19.67;;;;;;;3.45;100.00;100051.22;10408999;28;20045;-74
2023/03/06 18:49:15;;;;;;;31.20;20.17;;;;;;;3.43;100.00;100050.22;10418401;28;20049;-74
2023/03/06 18:54:15;;;;;;;32.50;17.00;;;;;;;3.40;100.00;100050.91;10430636;28;20209;-73
2023/03/06 18:59:16;;;;;;;29.13;18.50;;;;;;;3.46;100.00;100048.72;10418907;28;20041;-73
2023/03/06 19:04:16;;;;;;;27.55;17.77;;;;;;;3.46;100.00;100030.59;10434521;28;20136;-74
2023/03/06 19:09:16;;;;;;;26.10;16.42;;;;;;;3.41;100.00;100036.28;10449461;28;20060;-76
2023/03/06 19:14:17;;;;;;;26.65;17.63;;;;;;;3.40;100.00;100031.91;10452128;28;20132;-73
2023/03/06 19:19:18;;;;;;;25.98;14.68;;;;;;;3.36;100.00;100017.88;10465243;28;20114;-74
2023/03/06 19:24:18;;;;;;;28.02;16.77;;;;;;;3.38;100.00;100021.47;10458051;28;20123;-74
2023/03/06 19:29:19;;;;;;;24.45;15.82;;;;;;;3.33;100.00;100020.28;10416098;28;20227;-73
2023/03/06 19:34:19;;;;;;;30.17;17.42;;;;;;;3.22;100.00;100010.16;10405940;28;20045;-73
2023/03/06 19:39:20;;;;;;;29.85;15.93;;;;;;;3.12;100.00;100010.34;10389179;28;20124;-73
2023/03/06 19:44:21;;;;;;;27.55;19.45;;;;;;;3.02;100.00;100001.13;10434313;28;20067;-73
2023/03/06 19:49:22;;;;;;;30.30;16.65;;;;;;;3.02;100.00;99987.31;10447456;28;20506;-74
2023/03/06 19:54:24;;;;;;;27.65;16.83;;;;;;;2.92;100.00;99991.88;10434611;28;20146;-73
2023/03/06 19:59:24;;;;;;;29.17;17.15;;;;;;;2.91;100.00;99976.28;10388584;28;20462;-74
2023/03/06 20:04:25;;;;;;;29.85;16.70;;;;;;;2.90;100.00;99979.69;10416145;28;20119;-73
2023/03/06 20:09:25;;;;;;;28.30;17.73;;;;;;;2.90;100.00;99962.47;10457922;28;20041;-73
2023/03/06 20:14:26;;;;;;;28.73;18.20;;;;;;;2.85;100.00;99950.06;10437547;28;20539;-73
2023/03/06 20:19:26;;;;;;;27.15;18.20;;;;;;;2.97;100.00;99947.34;10463172;28;20041;-74
2023/03/06 20:24:27;;;;;;;31.80;16.83;;;;;;;2.91;100.00;99943.56;10482351;28;20127;-73
2023/03/06 20:29:27;;;;;;;25.95;17.05;;;;;;;2.84;100.00;99945.69;10442026;28;20060;-73
2023/03/06 20:34:28;;;;;;;33.72;18.92;;;;;;;2.67;100.00;99923.91;10439746;28;20519;-73
2023/03/06 20:39:28;;;;;;;33.22;20.90;;;;;;;2.58;100.00;99929.41;10440864;28;20038;-73
2023/03/06 20:44:29;;;;;;;33.33;20.95;;;;;;;2.55;100.00;99931.78;10424116;28;20041;-73
2023/03/06 20:49:29;;;;;;;30.60;21.25;;;;;;;2.40;100.00;99931.66;10429234;28;20039;-73
2023/03/06 20:54:30;;;;;;;40.72;20.92;;;;;;;2.28;100.00;99914.56;10449911;28;20415;-73
2023/03/06 20:59:30;;;;;;;30.33;20.05;;;;;;;2.16;100.00;99916.34;10447828;28;20065;-73
2023/03/06 21:04:31;;;;;;;34.95;24.48;;;;;;;2.08;100.00;99910.69;10447051;28;20123;-74
2023/03/06 21:09:33;;;;;;;30.55;20.95;;;;;;;2.10;100.00;99915.94;10448848;28;20106;-73
2023/03/06 21:14:33;;;;;;;;;;;;;;;2.06;100.00;99904.53;10447650;28;20381;-73
2023/03/06 21:19:35;;;;;;;34.74;23.56;;;;;;;2.08;100.00;99900.38;10467418;28;19920;-73
2023/03/06 21:24:35;;;;;;;27.45;20.25;;;;;;;2.16;100.00;99891.44;10487746;28;20028;-73
2023/03/06 21:29:36;;;;;;;34.60;20.75;;;;;;;2.20;100.00;99885.69;10465184;28;20124;-74
2023/03/06 21:34:36;;;;;;;29.20;18.27;;;;;;;2.20;100.00;99862.44;10442322;28;20480;-73
2023/03/06 21:39:37;;;;;;;31.58;19.90;;;;;;;2.28;100.00;99864.63;10410013;28;20121;-74
2023/03/06 21:44:37;;;;;;;34.63;19.73;;;;;;;2.30;100.00;99853.59;10466324;28;20127;-73
2023/03/06 21:49:38;;;;;;;33.35;21.95;;;;;;;2.33;100.00;99858.97;10487339;28;20056;-73
2023/03/06 21:54:39;;;;;;;32.25;17.85;;;;;;;2.25;100.00;99844.66;10455170;28;20037;-72
2023/03/06 21:59:39;;;;;;;30.33;18.88;;;;;;;2.23;100.00;99846.25;10445930;28;20064;-73
2023/03/06 22:04:40;;;;;;;35.10;20.25;;;;;;;2.18;100.00;99837.31;10438073;28;20655;-73
2023/03/06 22:09:41;;;;;;;32.40;20.02;;;;;;;2.16;100.00;99836.31;10446740;28;20115;-72
2023/03/06 22:14:44;;;;;;;32.15;20.48;;;;;;;2.23;100.00;99829.88;10443104;28;20055;-75
2023/03/06 22:19:46;;;;;;;29.92;17.02;;;;;;;2.31;100.00;99811.50;10446710;28;20037;-72
2023/03/06 22:24:47;;;;;;;33.35;17.30;;;;;;;2.34;100.00;99813.38;10442824;28;20060;-73
2023/03/06 22:29:47;;;;;;;26.77;17.08;;;;;;;2.39;100.00;99811.09;10445175;28;20037;-73
2023/03/06 22:34:48;;;;;;;26.95;17.10;;;;;;;2.43;100.00;99806.22;10447709;28;20043;-73
2023/03/06 22:39:49;;;;;;;22.40;15.77;;;;;;;2.41;100.00;99804.31;10456612;28;20099;-73
2023/03/06 22:44:49;;;;;;;22.63;14.52;;;;;;;2.45;100.00;99793.38;10447100;28;20175;-74
2023/03/06 22:49:50;;;;;;;24.33;13.63;;;;;;;2.49;100.00;99792.78;10429719;28;20077;-73